TFFRTLPC

Guest
Details From TFFR - Pointe a Pitre Le Raizet
To TLPC - Castries/George F L Charles
Flight Number -
Tags generated
Created
Modified
Stats Distance 139 nm / 257 km
Max Altitude 15,000 ft / 4,572 m
Waypoints 3
Social Downloads 1
Likes 0
Share VATSIM

Download

Looking for another format? Having issues loading an existing format? Contact us
Advertisement - Login to hide

Notes

Basic altitude profile: - Ascent Rate: 2500ft/min - Ascent Speed: 250kts - Cruise Altitude: 35000ft - Cruise Speed: 420kts - Descent Rate: 1500ft/min - Descent Speed: 250kts Options: - Use NATs: yes - Use PACOTS: yes - Use low airways: yes - Use high airways: yes

Route

TFFR DOM TLPC

ID Type Via Altitude Latitude Longitude Leg Dist Tot Dist Heading (true) Name
O TFFR APT - 0 ft / 0 m 16.26531˚ -61.53181˚ - 0 nm - Pointe a Pitre Le Raizet
DOM NDB - 15,000 ft / 4,572 m 15.55094˚ -61.29564˚ 45 nm 45 nm 162° / 162° MELVILLE HALL NDB
O TLPC APT - 0 ft / 0 m 14.01970˚ -60.99339˚ 93 nm 138 nm 169° / 169° Castries/George F L Charles

Altitude Profile

Advertisement - Login to hide

TFFR

Details ICAO TFFR (PTP)
Name Pointe a Pitre Le Raizet
Region France (Guadeloupe, Martinique, Saint Barthélemy, Saint Martin)
Timezone America/Guadeloupe (UTC-4.0)
Stats Elevation 35 ft / 11 m (AMSL)
Location 16.265306° -61.531808°
Runways 1
Magnetic Variation 14.857° W

METAR

TFFR 141330Z AUTO 11007KT 060V150 9999 SCT029 BKN074 28/21 Q1017 TEMPO 4000 SHRA SCT015TCU

Decode

TAF

Not found

Departure Runways

ID Width Length Bearing (true) Bearing (mag) Surface Threshold Offset Overrun Length
11 148 ft / 45 m 11,513 ft / 3,509 m 100.94° 115.80° Asphalt 0 ft / 0 m 0 ft / 0 m
29 148 ft / 45 m 11,513 ft / 3,509 m 280.95° 295.81° Asphalt 0 ft / 0 m 0 ft / 0 m

TLPC

Details ICAO TLPC (SLU)
Name Castries/George F L Charles
Region Saint Lucia
Timezone America/St_Lucia (UTC-4.0)
Stats Elevation 22 ft / 7 m (AMSL)
Location 14.019704° -60.993394°
Runways 1
Magnetic Variation 15.072° W

METAR

TLPC 141200Z 09005KT 9999 FEW021 27/23 Q1016 NOSIG

Decode

TAF

Not found

Destination Runways

ID Width Length Bearing (true) Bearing (mag) Surface Threshold Offset Overrun Length
09 148 ft / 45 m 5,731 ft / 1,747 m 75.34° 90.41° Asphalt 400 ft / 122 m 0 ft / 0 m
27 148 ft / 45 m 5,731 ft / 1,747 m 255.34° 270.41° Asphalt 925 ft / 282 m 0 ft / 0 m

Popular Alternatives